Urb Las Ceibas, Puerto Rico
Current Conditions -  °F | °C
As of 8:50 AM on Friday 19 Dec 2014 (Local Time) from TJBQ Reporting Station
Broken Clouds Broken Clouds  
Wind Chill: 75°   Ceiling: 8000
Heat Index: 75°   Visibility: 10mi
Dew Point: 70°   Wind: 12mph
Humidity: 83%   Direction: 90°E
Pressure: 30.03"   Gusts: 17mph
Location:  18.4951°N, 67.0273°W
Report Text: TJBQ 191250Z 09010G15KT 10SM BKN080 24/21 A3003 RMK RWY08 ATIS K
Loading
Personal Weather Stations






























Interactive Weather Map New forecast layout! Learn more

10-Day Weather Forecast

Advertisements
Track Severe Weather on mobile